sensor_id;sensor_type;location;lat;lon;timestamp;temperature;humidity
13600;DHT22;6871;51.34740610;4.31323160;2023-04-15T00:00:22;16.20;77.10
13600;DHT22;6871;51.34740610;4.31323160;2023-04-15T00:03:01;16.20;77.10
13600;DHT22;6871;51.34740610;4.31323160;2023-04-15T00:05:43;16.20;77.20
13600;DHT22;6871;51.34740610;4.31323160;2023-04-15T00:08:21;16.20;77.30
13600;DHT22;6871;51.34740610;4.31323160;2023-04-15T00:10:54;16.20;77.30
13600;DHT22;6871;51.34740610;4.31323160;2023-04-15T00:13:30;16.20;77.40
13600;DHT22;6871;51.34740610;4.31323160;2023-04-15T00:16:02;16.20;77.20
13600;DHT22;6871;51.34740610;4.31323160;2023-04-15T00:18:45;16.20;77.10
13600;DHT22;6871;51.34740610;4.31323160;2023-04-15T00:21:20;16.10;77.10
13600;DHT22;6871;51.34740610;4.31323160;2023-04-15T00:23:57;16.20;77.10
13600;DHT22;6871;51.34740610;4.31323160;2023-04-15T00:29:44;16.20;77.30
13600;DHT22;6871;51.34740610;4.31323160;2023-04-15T00:32:39;16.20;77.30
13600;DHT22;6871;51.34740610;4.31323160;2023-04-15T00:35:17;16.20;77.30
13600;DHT22;6871;51.34740610;4.31323160;2023-04-15T00:37:54;16.10;77.20
13600;DHT22;6871;51.34740610;4.31323160;2023-04-15T00:40:40;16.20;77.20
13600;DHT22;6871;51.34740610;4.31323160;2023-04-15T00:43:22;16.20;77.20
13600;DHT22;6871;51.34740610;4.31323160;2023-04-15T00:46:06;16.10;77.30
13600;DHT22;6871;51.34740610;4.31323160;2023-04-15T00:48:58;16.10;77.30
13600;DHT22;6871;51.34740610;4.31323160;2023-04-15T00:51:41;16.10;78.20
13600;DHT22;6871;51.34740610;4.31323160;2023-04-15T01:07:17;16.10;77.20
13600;DHT22;6871;51.34740610;4.31323160;2023-04-15T01:09:58;16.00;77.70
13600;DHT22;6871;51.34740610;4.31323160;2023-04-15T01:12:52;16.00;77.70
13600;DHT22;6871;51.34740610;4.31323160;2023-04-15T01:15:25;16.00;77.70
13600;DHT22;6871;51.34740610;4.31323160;2023-04-15T01:18:03;16.00;77.70
13600;DHT22;6871;51.34740610;4.31323160;2023-04-15T01:20:36;16.00;77.70
13600;DHT22;6871;51.34740610;4.31323160;2023-04-15T01:23:11;16.00;77.60
13600;DHT22;6871;51.34740610;4.31323160;2023-04-15T01:25:56;16.00;77.70
13600;DHT22;6871;51.34740610;4.31323160;2023-04-15T01:28:36;16.00;77.60
13600;DHT22;6871;51.34740610;4.31323160;2023-04-15T01:31:11;16.10;77.70
13600;DHT22;6871;51.34740610;4.31323160;2023-04-15T01:33:44;16.00;77.50
13600;DHT22;6871;51.34740610;4.31323160;2023-04-15T01:36:30;16.00;77.50
13600;DHT22;6871;51.34740610;4.31323160;2023-04-15T01:39:05;16.00;77.40
13600;DHT22;6871;51.34740610;4.31323160;2023-04-15T01:41:39;16.10;77.50
13600;DHT22;6871;51.34740610;4.31323160;2023-04-15T01:44:17;16.10;77.60
13600;DHT22;6871;51.34740610;4.31323160;2023-04-15T01:46:54;16.10;77.60
13600;DHT22;6871;51.34740610;4.31323160;2023-04-15T01:49:34;16.00;77.60
13600;DHT22;6871;51.34740610;4.31323160;2023-04-15T01:52:16;16.00;77.50
13600;DHT22;6871;51.34740610;4.31323160;2023-04-15T01:54:48;16.00;77.40
13600;DHT22;6871;51.34740610;4.31323160;2023-04-15T02:00:18;16.00;77.50
13600;DHT22;6871;51.34740610;4.31323160;2023-04-15T02:02:51;16.00;77.50
13600;DHT22;6871;51.34740610;4.31323160;2023-04-15T02:05:23;16.00;77.60
13600;DHT22;6871;51.34740610;4.31323160;2023-04-15T02:07:56;16.00;77.60
13600;DHT22;6871;51.34740610;4.31323160;2023-04-15T02:10:29;16.00;77.50
13600;DHT22;6871;51.34740610;4.31323160;2023-04-15T02:13:02;16.00;77.60
13600;DHT22;6871;51.34740610;4.31323160;2023-04-15T02:15:37;16.00;77.50
13600;DHT22;6871;51.34740610;4.31323160;2023-04-15T02:18:27;16.00;77.50
13600;DHT22;6871;51.34740610;4.31323160;2023-04-15T02:20:59;16.00;77.50
13600;DHT22;6871;51.34740610;4.31323160;2023-04-15T02:23:31;16.00;77.50
13600;DHT22;6871;51.34740610;4.31323160;2023-04-15T02:26:06;16.00;77.60
13600;DHT22;6871;51.34740610;4.31323160;2023-04-15T02:28:38;16.00;77.60
13600;DHT22;6871;51.34740610;4.31323160;2023-04-15T02:31:10;16.00;77.60
13600;DHT22;6871;51.34740610;4.31323160;2023-04-15T02:33:56;16.00;77.50
13600;DHT22;6871;51.34740610;4.31323160;2023-04-15T02:36:32;16.00;77.50
13600;DHT22;6871;51.34740610;4.31323160;2023-04-15T02:39:10;16.00;77.50
13600;DHT22;6871;51.34740610;4.31323160;2023-04-15T02:41:57;16.00;77.60
13600;DHT22;6871;51.34740610;4.31323160;2023-04-15T02:47:26;16.00;78.40
13600;DHT22;6871;51.34740610;4.31323160;2023-04-15T02:49:58;16.00;77.60
13600;DHT22;6871;51.34740610;4.31323160;2023-04-15T02:52:29;16.00;77.60
13600;DHT22;6871;51.34740610;4.31323160;2023-04-15T02:55:00;16.00;77.60
13600;DHT22;6871;51.34740610;4.31323160;2023-04-15T02:57:35;16.00;77.60
13600;DHT22;6871;51.34740610;4.31323160;2023-04-15T03:00:21;16.00;77.60
13600;DHT22;6871;51.34740610;4.31323160;2023-04-15T03:03:00;16.00;77.70
13600;DHT22;6871;51.34740610;4.31323160;2023-04-15T03:05:34;16.00;77.70
13600;DHT22;6871;51.34740610;4.31323160;2023-04-15T03:08:06;16.00;78.50
13600;DHT22;6871;51.34740610;4.31323160;2023-04-15T03:10:51;15.90;77.60
13600;DHT22;6871;51.34740610;4.31323160;2023-04-15T03:13:22;15.90;77.60
13600;DHT22;6871;51.34740610;4.31323160;2023-04-15T03:16:10;15.90;77.70
13600;DHT22;6871;51.34740610;4.31323160;2023-04-15T03:18:43;16.00;77.80
13600;DHT22;6871;51.34740610;4.31323160;2023-04-15T03:21:14;15.90;77.80
13600;DHT22;6871;51.34740610;4.31323160;2023-04-15T03:23:57;15.90;77.80
13600;DHT22;6871;51.34740610;4.31323160;2023-04-15T03:26:34;15.90;77.90
13600;DHT22;6871;51.34740610;4.31323160;2023-04-15T03:29:07;15.90;77.80
13600;DHT22;6871;51.34740610;4.31323160;2023-04-15T03:31:57;15.90;77.80
13600;DHT22;6871;51.34740610;4.31323160;2023-04-15T03:34:40;15.90;77.80
13600;DHT22;6871;51.34740610;4.31323160;2023-04-15T03:37:10;15.90;78.00
13600;DHT22;6871;51.34740610;4.31323160;2023-04-15T03:39:42;15.90;78.00
13600;DHT22;6871;51.34740610;4.31323160;2023-04-15T03:55:43;15.90;77.90
13600;DHT22;6871;51.34740610;4.31323160;2023-04-15T03:58:16;15.80;78.40
13600;DHT22;6871;51.34740610;4.31323160;2023-04-15T04:00:48;15.80;78.50
13600;DHT22;6871;51.34740610;4.31323160;2023-04-15T04:03:22;15.80;78.50
13600;DHT22;6871;51.34740610;4.31323160;2023-04-15T04:05:53;15.80;78.40
13600;DHT22;6871;51.34740610;4.31323160;2023-04-15T04:08:24;15.80;78.30
13600;DHT22;6871;51.34740610;4.31323160;2023-04-15T04:10:59;15.80;78.40
13600;DHT22;6871;51.34740610;4.31323160;2023-04-15T04:13:32;15.80;78.30
13600;DHT22;6871;51.34740610;4.31323160;2023-04-15T04:16:14;15.80;78.20
13600;DHT22;6871;51.34740610;4.31323160;2023-04-15T04:18:44;15.80;78.20
13600;DHT22;6871;51.34740610;4.31323160;2023-04-15T04:21:22;15.80;78.10
13600;DHT22;6871;51.34740610;4.31323160;2023-04-15T04:23:54;15.80;78.10
13600;DHT22;6871;51.34740610;4.31323160;2023-04-15T04:26:29;15.80;78.00
13600;DHT22;6871;51.34740610;4.31323160;2023-04-15T04:29:06;15.80;78.10
13600;DHT22;6871;51.34740610;4.31323160;2023-04-15T04:31:39;15.80;78.10
13600;DHT22;6871;51.34740610;4.31323160;2023-04-15T04:34:10;15.80;78.10
13600;DHT22;6871;51.34740610;4.31323160;2023-04-15T04:36:41;15.80;78.20
13600;DHT22;6871;51.34740610;4.31323160;2023-04-15T04:41:56;15.80;78.10
13600;DHT22;6871;51.34740610;4.31323160;2023-04-15T04:44:30;15.80;78.10
13600;DHT22;6871;51.34740610;4.31323160;2023-04-15T04:47:01;15.80;79.00
13600;DHT22;6871;51.34740610;4.31323160;2023-04-15T04:49:33;15.80;78.10
13600;DHT22;6871;51.34740610;4.31323160;2023-04-15T04:52:06;15.80;78.20
13600;DHT22;6871;51.34740610;4.31323160;2023-04-15T04:54:36;15.80;78.20
13600;DHT22;6871;51.34740610;4.31323160;2023-04-15T04:57:06;15.80;78.10
13600;DHT22;6871;51.34740610;4.31323160;2023-04-15T04:59:44;15.80;78.20
13600;DHT22;6871;51.34740610;4.31323160;2023-04-15T05:02:23;15.80;78.10
13600;DHT22;6871;51.34740610;4.31323160;2023-04-15T05:05:08;15.80;78.10
13600;DHT22;6871;51.34740610;4.31323160;2023-04-15T05:07:51;15.80;78.10
13600;DHT22;6871;51.34740610;4.31323160;2023-04-15T05:10:22;15.80;78.20
13600;DHT22;6871;51.34740610;4.31323160;2023-04-15T05:12:58;15.80;78.20
13600;DHT22;6871;51.34740610;4.31323160;2023-04-15T05:15:29;15.80;78.20
13600;DHT22;6871;51.34740610;4.31323160;2023-04-15T05:18:02;15.80;79.00
13600;DHT22;6871;51.34740610;4.31323160;2023-04-15T05:23:24;15.80;78.10
13600;DHT22;6871;51.34740610;4.31323160;2023-04-15T05:26:02;15.80;78.00
13600;DHT22;6871;51.34740610;4.31323160;2023-04-15T05:28:34;15.80;78.10
13600;DHT22;6871;51.34740610;4.31323160;2023-04-15T05:31:24;15.80;78.10
13600;DHT22;6871;51.34740610;4.31323160;2023-04-15T05:33:58;15.80;78.20
13600;DHT22;6871;51.34740610;4.31323160;2023-04-15T05:36:31;15.80;78.20
13600;DHT22;6871;51.34740610;4.31323160;2023-04-15T05:39:08;15.80;78.10
13600;DHT22;6871;51.34740610;4.31323160;2023-04-15T05:42:00;15.80;78.10
13600;DHT22;6871;51.34740610;4.31323160;2023-04-15T05:44:54;15.80;78.10
13600;DHT22;6871;51.34740610;4.31323160;2023-04-15T05:47:28;15.70;78.10
13600;DHT22;6871;51.34740610;4.31323160;2023-04-15T05:50:22;15.70;78.20
13600;DHT22;6871;51.34740610;4.31323160;2023-04-15T05:53:10;15.70;78.20
13600;DHT22;6871;51.34740610;4.31323160;2023-04-15T06:05:23;15.70;78.20
13600;DHT22;6871;51.34740610;4.31323160;2023-04-15T06:08:27;15.70;78.20
13600;DHT22;6871;51.34740610;4.31323160;2023-04-15T06:20:53;15.70;78.20
13600;DHT22;6871;51.34740610;4.31323160;2023-04-15T06:23:29;15.70;78.30
13600;DHT22;6871;51.34740610;4.31323160;2023-04-15T06:26:01;15.70;78.30
13600;DHT22;6871;51.34740610;4.31323160;2023-04-15T06:28:52;15.70;78.30
13600;DHT22;6871;51.34740610;4.31323160;2023-04-15T06:34:44;15.70;78.20
13600;DHT22;6871;51.34740610;4.31323160;2023-04-15T06:37:27;15.70;78.20
13600;DHT22;6871;51.34740610;4.31323160;2023-04-15T06:50:31;15.70;78.20
13600;DHT22;6871;51.34740610;4.31323160;2023-04-15T06:53:40;15.70;78.20
13600;DHT22;6871;51.34740610;4.31323160;2023-04-15T07:03:12;15.70;78.30
13600;DHT22;6871;51.34740610;4.31323160;2023-04-15T07:16:15;15.70;78.50
13600;DHT22;6871;51.34740610;4.31323160;2023-04-15T07:19:04;15.70;78.20
13600;DHT22;6871;51.34740610;4.31323160;2023-04-15T07:21:35;15.70;78.30
13600;DHT22;6871;51.34740610;4.31323160;2023-04-15T07:35:08;15.80;78.40
13600;DHT22;6871;51.34740610;4.31323160;2023-04-15T07:53:09;15.80;78.80
13600;DHT22;6871;51.34740610;4.31323160;2023-04-15T07:55:49;15.80;78.70
13600;DHT22;6871;51.34740610;4.31323160;2023-04-15T07:58:25;15.90;78.90
13600;DHT22;6871;51.34740610;4.31323160;2023-04-15T08:00:55;15.90;79.80
13600;DHT22;6871;51.34740610;4.31323160;2023-04-15T08:03:27;16.00;82.20
13600;DHT22;6871;51.34740610;4.31323160;2023-04-15T08:09:00;16.10;80.90
13600;DHT22;6871;51.34740610;4.31323160;2023-04-15T08:12:09;16.00;80.10
13600;DHT22;6871;51.34740610;4.31323160;2023-04-15T08:14:43;16.10;80.40
13600;DHT22;6871;51.34740610;4.31323160;2023-04-15T08:17:12;16.20;82.70
13600;DHT22;6871;51.34740610;4.31323160;2023-04-15T08:20:02;16.30;82.40
13600;DHT22;6871;51.34740610;4.31323160;2023-04-15T08:22:42;16.40;81.50
13600;DHT22;6871;51.34740610;4.31323160;2023-04-15T08:25:36;16.40;81.00
13600;DHT22;6871;51.34740610;4.31323160;2023-04-15T08:28:11;16.40;81.80
13600;DHT22;6871;51.34740610;4.31323160;2023-04-15T08:30:41;16.40;81.30
13600;DHT22;6871;51.34740610;4.31323160;2023-04-15T08:33:11;16.50;80.70
13600;DHT22;6871;51.34740610;4.31323160;2023-04-15T08:35:40;16.60;80.00
13600;DHT22;6871;51.34740610;4.31323160;2023-04-15T08:38:10;16.60;79.90
13600;DHT22;6871;51.34740610;4.31323160;2023-04-15T08:40:44;16.60;79.60
13600;DHT22;6871;51.34740610;4.31323160;2023-04-15T08:43:20;16.60;80.40
13600;DHT22;6871;51.34740610;4.31323160;2023-04-15T08:45:46;16.70;79.60
13600;DHT22;6871;51.34740610;4.31323160;2023-04-15T08:48:18;16.70;79.50
13600;DHT22;6871;51.34740610;4.31323160;2023-04-15T08:50:49;16.70;79.40
13600;DHT22;6871;51.34740610;4.31323160;2023-04-15T08:53:20;16.70;79.60
13600;DHT22;6871;51.34740610;4.31323160;2023-04-15T08:55:52;16.70;79.50
13600;DHT22;6871;51.34740610;4.31323160;2023-04-15T08:58:24;16.70;79.50
13600;DHT22;6871;51.34740610;4.31323160;2023-04-15T09:00:56;16.70;79.60
13600;DHT22;6871;51.34740610;4.31323160;2023-04-15T09:03:27;16.70;79.80
13600;DHT22;6871;51.34740610;4.31323160;2023-04-15T09:05:57;16.70;79.90
13600;DHT22;6871;51.34740610;4.31323160;2023-04-15T09:08:27;16.70;79.90
13600;DHT22;6871;51.34740610;4.31323160;2023-04-15T09:13:48;16.80;79.90
13600;DHT22;6871;51.34740610;4.31323160;2023-04-15T09:16:18;16.80;79.80
13600;DHT22;6871;51.34740610;4.31323160;2023-04-15T09:18:51;16.80;80.00
13600;DHT22;6871;51.34740610;4.31323160;2023-04-15T09:21:41;16.80;80.00
13600;DHT22;6871;51.34740610;4.31323160;2023-04-15T09:24:21;16.90;79.90
13600;DHT22;6871;51.34740610;4.31323160;2023-04-15T09:26:54;16.80;80.60
13600;DHT22;6871;51.34740610;4.31323160;2023-04-15T09:29:25;16.70;80.40
13600;DHT22;6871;51.34740610;4.31323160;2023-04-15T09:31:55;16.80;80.00
13600;DHT22;6871;51.34740610;4.31323160;2023-04-15T09:34:34;16.90;79.60
13600;DHT22;6871;51.34740610;4.31323160;2023-04-15T09:37:04;16.80;79.80
13600;DHT22;6871;51.34740610;4.31323160;2023-04-15T09:39:48;16.90;80.10
13600;DHT22;6871;51.34740610;4.31323160;2023-04-15T09:42:18;16.90;79.80
13600;DHT22;6871;51.34740610;4.31323160;2023-04-15T09:44:55;16.90;79.90
13600;DHT22;6871;51.34740610;4.31323160;2023-04-15T09:47:30;17.00;79.60
13600;DHT22;6871;51.34740610;4.31323160;2023-04-15T09:50:00;17.00;79.60
13600;DHT22;6871;51.34740610;4.31323160;2023-04-15T09:52:41;16.90;79.30
13600;DHT22;6871;51.34740610;4.31323160;2023-04-15T09:55:32;17.00;79.00
13600;DHT22;6871;51.34740610;4.31323160;2023-04-15T10:00:54;17.10;78.90
13600;DHT22;6871;51.34740610;4.31323160;2023-04-15T10:03:38;17.10;78.80
13600;DHT22;6871;51.34740610;4.31323160;2023-04-15T10:06:09;17.20;78.80
13600;DHT22;6871;51.34740610;4.31323160;2023-04-15T10:08:39;17.20;78.70
13600;DHT22;6871;51.34740610;4.31323160;2023-04-15T10:13:59;17.20;78.90
13600;DHT22;6871;51.34740610;4.31323160;2023-04-15T10:16:56;17.30;79.00
13600;DHT22;6871;51.34740610;4.31323160;2023-04-15T10:19:37;17.30;78.80
13600;DHT22;6871;51.34740610;4.31323160;2023-04-15T10:22:07;17.30;78.80
13600;DHT22;6871;51.34740610;4.31323160;2023-04-15T10:27:46;17.30;79.00
13600;DHT22;6871;51.34740610;4.31323160;2023-04-15T10:30:21;17.30;79.00
13600;DHT22;6871;51.34740610;4.31323160;2023-04-15T12:29:28;17.80;81.00
13600;DHT22;6871;51.34740610;4.31323160;2023-04-15T12:32:12;17.80;80.70
13600;DHT22;6871;51.34740610;4.31323160;2023-04-15T12:35:14;17.70;80.80
13600;DHT22;6871;51.34740610;4.31323160;2023-04-15T14:41:32;17.60;82.70
13600;DHT22;6871;51.34740610;4.31323160;2023-04-15T14:44:06;17.60;83.00
13600;DHT22;6871;51.34740610;4.31323160;2023-04-15T14:46:54;17.60;83.00
13600;DHT22;6871;51.34740610;4.31323160;2023-04-15T14:49:24;17.60;82.80
13600;DHT22;6871;51.34740610;4.31323160;2023-04-15T14:52:16;17.60;82.70
13600;DHT22;6871;51.34740610;4.31323160;2023-04-15T14:54:46;17.60;83.00
13600;DHT22;6871;51.34740610;4.31323160;2023-04-15T14:57:25;17.60;82.70
13600;DHT22;6871;51.34740610;4.31323160;2023-04-15T21:53:51;17.00;80.30
13600;DHT22;6871;51.34740610;4.31323160;2023-04-15T22:10:07;17.00;80.30
